TOURFACTS.DK  
Stats and Facts from Tour de France.

Tour de France 2019 starts in 347 days
  Riders   Stages   Teams   Summits   Yearly  


 
Search by year

After 2018 - Stage 14:
 15000 starters.
  5163 different riders.
  639 teams.
  2246 stages.
  456 restdays.
  441957.60 km.
  5678 abandonnees.


Top 3
GC
Christopher Froome86:20:55
Rigoberto Urán86:21:49
Romain Bardet86:23:15
Climb
Warren Barguil169 pt.
Primoz Roglic80 pt.
Thomas De Gendt64 pt.
Sprint
Michael Matthews359 pt.
André Greipel234 pt.
Edvald Boasson Hagen220 pt.
Youth
Simon Yates86:27:09
Louis Meintjes86:29:15
Emanuel Buchmann86:54:16
Facts from Tour de France 2002
  |   Stages.  |   Stage winners.  |   Days in yellow  |   Average speed.  |   Route.  |   Teams.  |   All riders.  |   Rookies.  |  

  |   Withdrawls.  |   GC.  |   Polka  |   Green  |   White  |   Summits. (In tour)  |   Miscellaneous.  |  

Stage 13 on July 20th. 2002
         Owning:    Lance Armstrong    
Pick a stage:  Pro 1 2 3 4 5 6 7 8 9 10 11 12 13 14 15 16 17 18 19 20
From: Lavelanet    To: BéziersDist:171.00 km.
Cat: 3MontsagurFRALaurent Jalabert
10 points
 
Cat: 4BadouradeFRALaurent Jalabert
5 points
 
Cat: 3Saint BenoitFRALaurent Jalabert
10 points
 

Average speed for all riders in stage:  39,775 km./hr.
    Place:Name:Team:Time:Km/h:
MLTDavid MillarFRACofidis Credit Par Telephone04:08:18  +  00:00:00=41,321 
ESPDavid EtxebarriaESPEuskaltel - Euskadi04:08:18  +  00:00:00=41,321 
NEDMichael BoogerdNLDRabobank04:08:18  +  00:00:00=41,321 
4 FRALaurent BrochardFRAJean Delatour04:08:18  +  00:00:00=41,321 
5 ESPDavid LatasaESPibanesto.com04:08:22  +  00:00:04=41,310 
6 ESPJavier PascualESPibanesto.com04:09:14  +  00:00:56=41,166 
7 ITAEddy MazzoleniITATacconi Sport04:09:14  +  00:00:56=41,166 
8 ESPMiguel Angel MartinezITAMapei-Quick Step04:09:24  +  00:01:06=41,139 
9 SUIBeat ZbergNLDRabobank04:09:24  +  00:01:06=41,139 
10 USABobby JulichUSATeam Telekom04:09:26  +  00:01:08=41,133 
11 FRALaurent JalabertDNKTeam CSC-Tiscali04:09:28  +  00:01:10=41,128 
12 AUSBaden CookeFRAfdjeux.com04:18:14  +  00:09:56=39,732 
13 AUSRobbie McEwenBELLotto-Adecco04:18:14  +  00:09:56=39,732 
14 DDRErik ZabelUSATeam Telekom04:18:14  +  00:09:56=39,732 
15 AUSStuart O'GradyFRACredit Agricole04:18:14  +  00:09:56=39,732 
16 SVKJán SvoradaITALampre-Daikin04:18:14  +  00:09:56=39,732 
17 FRASébastien HinaultFRACredit Agricole04:18:14  +  00:09:56=39,732 
18 DENJakob PiilDNKTeam CSC-Tiscali04:18:14  +  00:09:56=39,732 
19 ITAAndrea TafiITAMapei-Quick Step04:18:14  +  00:09:56=39,732 
20 FRAChristophe AgnoluttoFRAAg2r Prevoyance04:18:14  +  00:09:56=39,732 
21 NEDBram de GrootNLDRabobank04:18:14  +  00:09:56=39,732 
22 BELNico MattanFRACofidis Credit Par Telephone04:18:14  +  00:09:56=39,732 
23 ESPÓscar SevillaESPKelme-Costa Blanca04:18:14  +  00:09:56=39,732 
24 ESPFrancisco ManceboESPibanesto.com04:18:14  +  00:09:56=39,732 
25 ITAIvan BassoITAFassa Bortolo04:18:14  +  00:09:56=39,732 
26 ITAMarco VeloITAFassa Bortolo04:18:14  +  00:09:56=39,732 
27 GERDanilo HondoUSATeam Telekom04:18:14  +  00:09:56=39,732 
28 ESPJosé RubieraUSAUS Postal Service04:18:14  +  00:09:56=39,732 
29 USAFloyd LandisUSAUS Postal Service04:18:14  +  00:09:56=39,732 
30 USALance ArmstrongUSAUS Postal Service04:18:14  +  00:09:56=39,732 
31 CZEPavel PadrnosUSAUS Postal Service04:18:14  +  00:09:56=39,732 
32 BELAxel MerckxBELDomo-Farm Frites04:18:14  +  00:09:56=39,732 
33 BELChristophe BrandtBELLotto-Adecco04:18:14  +  00:09:56=39,732 
34 BELPaul Van HyfteDNKTeam CSC-Tiscali04:18:14  +  00:09:56=39,732 
35 ESPIgor GonzalezESPO.N.C.E.-Eroski04:18:14  +  00:09:56=39,732 
36 URSRaimondas RumsasITALampre-Daikin04:18:14  +  00:09:56=39,732 
37 FRAEmmanuel MagnienFRABonjour04:18:14  +  00:09:56=39,732 
38 ESPJoseba BelokiESPO.N.C.E.-Eroski04:18:14  +  00:09:56=39,732 
39 ESPMikel PraderaESPO.N.C.E.-Eroski04:18:14  +  00:09:56=39,732 
40 ITADario FrigoITATacconi Sport04:18:14  +  00:09:56=39,732 
41 FRAStéphane AugeFRAJean Delatour04:18:14  +  00:09:56=39,732 
42 ITAAndrea BrognaraITAAlessio04:18:14  +  00:09:56=39,732 
43 ITAAlessandro CortinovisITALampre-Daikin04:18:14  +  00:09:56=39,732 
44 COLSantiago BoteroESPKelme-Costa Blanca04:18:14  +  00:09:56=39,732 
45 ESPJosé Enrique GutierrezESPKelme-Costa Blanca04:18:14  +  00:09:56=39,732 
46 ITAGianluca BortolamiITATacconi Sport04:18:14  +  00:09:56=39,732 
47 USALevi LeipheimerNLDRabobank04:18:14  +  00:09:56=39,732 
48 FRALaurent LefèvreFRAJean Delatour04:18:14  +  00:09:56=39,732 
49 FRAStéphane GoubertFRAJean Delatour04:18:14  +  00:09:56=39,732 
50 ESPIsidro NozalESPO.N.C.E.-Eroski04:18:14  +  00:09:56=39,732 
51 ESPAbraham OlanoESPO.N.C.E.-Eroski04:18:14  +  00:09:56=39,732 
52 ESPHaimar ZubeldiaESPEuskaltel - Euskadi04:18:14  +  00:09:56=39,732 
53 FRANicolas VogondyFRAfdjeux.com04:18:14  +  00:09:56=39,732 
54 KAZAndrei KivilevFRACofidis Credit Par Telephone04:18:14  +  00:09:56=39,732 
55 ESPMarcos SerranoESPO.N.C.E.-Eroski04:18:14  +  00:09:56=39,732 
56 FRAJean-Cyril RobinFRAfdjeux.com04:18:14  +  00:09:56=39,732 
57 BELThierry MarichalBELLotto-Adecco04:18:14  +  00:09:56=39,732 
58 FRAJimmy CasperFRAfdjeux.com04:18:14  +  00:09:56=39,732 
59 ITANicola LodaITAFassa Bortolo04:18:14  +  00:09:56=39,732 
60 ESPUnai OsaESPibanesto.com04:18:14  +  00:09:56=39,732 
61 BELMario AertsBELLotto-Adecco04:18:14  +  00:09:56=39,732 
62 NORThor HushovdFRACredit Agricole04:18:14  +  00:09:56=39,732 
63 AUTGerhard TrampuschITAMapei-Quick Step04:18:14  +  00:09:56=39,732 
64 URSViatcheslav EkimovUSAUS Postal Service04:18:14  +  00:09:56=39,732 
65 ESPPedro HorrilloITAMapei-Quick Step04:18:14  +  00:09:56=39,732 
66 ESPRoberto HerasUSAUS Postal Service04:18:14  +  00:09:56=39,732 
67 DENNicki SørensenDNKTeam CSC-Tiscali04:18:14  +  00:09:56=39,732 
68 USATyler HamiltonDNKTeam CSC-Tiscali04:18:14  +  00:09:56=39,732 
69 ESPCarlos SastreDNKTeam CSC-Tiscali04:18:14  +  00:09:56=39,732 
70 ITAWladimir BelliITAFassa Bortolo04:18:14  +  00:09:56=39,732 
71 ITAFabio BaldatoITAFassa Bortolo04:18:14  +  00:09:56=39,732 
72 GERJörg JakscheESPO.N.C.E.-Eroski04:18:14  +  00:09:56=39,732 
73 FRAFrédéric BessyFRACredit Agricole04:18:14  +  00:09:56=39,732 
74 FRAChristophe MoreauFRACredit Agricole04:18:14  +  00:09:56=39,732 
75 PORJosé AzevedoESPO.N.C.E.-Eroski04:18:14  +  00:09:56=39,732 
76 BELHans De ClercqBELLotto-Adecco04:18:14  +  00:09:56=39,732 
77 FRAPatrice HalgandFRAJean Delatour04:18:14  +  00:09:56=39,732 
78 FRAChristophe MenginFRAfdjeux.com04:18:14  +  00:09:56=39,732 
79 BELSerge BaguetBELLotto-Adecco04:18:14  +  00:09:56=39,732 
80 ITAMarco SerpelliniITALampre-Daikin04:18:14  +  00:09:56=39,732 
81 FRASylvain ChavanelFRABonjour04:18:14  +  00:09:56=39,732 
82 ITAMassimiliano LelliFRACofidis Credit Par Telephone04:18:14  +  00:09:56=39,732 
83 ITAMauro RadaelliITATacconi Sport04:18:14  +  00:09:56=39,732 
84 ITAMassimo ApollonioITATacconi Sport04:18:14  +  00:09:56=39,732 
85 FRADavid MoncoutiéFRACofidis Credit Par Telephone04:18:14  +  00:09:56=39,732 
86 BELMarc WautersNLDRabobank04:18:14  +  00:09:56=39,732 
87 ITAGian Matteo FagniniUSATeam Telekom04:18:14  +  00:09:56=39,732 
88 GERGrischa NiermannNLDRabobank04:18:14  +  00:09:56=39,732 
89 ITAEnrico CassaniBELDomo-Farm Frites04:18:14  +  00:09:56=39,732 
90 GERRolf AldagUSATeam Telekom04:18:14  +  00:09:56=39,732 
91 HUNLaszlo BodrogiITAMapei-Quick Step04:18:14  +  00:09:56=39,732 
92 ESPIñigo ChaurreauFRAAg2r Prevoyance04:18:14  +  00:09:56=39,732 
93 ITAIvan GottiITAAlessio04:18:14  +  00:09:56=39,732 
94 CZETomas KonecnyBELDomo-Farm Frites04:18:14  +  00:09:56=39,732 
95 POLDariusz BaranowskiESPibanesto.com04:18:14  +  00:09:56=39,732 
96 ITAAndrea PeronDNKTeam CSC-Tiscali04:18:14  +  00:09:56=39,732 
97 MARRichard VirenqueBELDomo-Farm Frites04:18:14  +  00:09:56=39,732 
98 POLPiotr WadeckiBELDomo-Farm Frites04:18:14  +  00:09:56=39,732 
99 SUILaurent DufauxITAAlessio04:18:14  +  00:09:56=39,732 
100 SUIThierry LoderFRAAg2r Prevoyance04:18:14  +  00:09:56=39,732 
101 FRACédric VasseurFRACofidis Credit Par Telephone04:18:14  +  00:09:56=39,732 
102 ESPBingen FernandezFRACofidis Credit Par Telephone04:18:14  +  00:09:56=39,732 
103 NEDLeon van BonBELDomo-Farm Frites04:18:14  +  00:09:56=39,732 
104 ESPFrancisco CabelloESPKelme-Costa Blanca04:18:14  +  00:09:56=39,732 
105 UKRVolodymir GustovITAFassa Bortolo04:18:14  +  00:09:56=39,732 
106 ESPDaniel AtienzaFRACofidis Credit Par Telephone04:18:14  +  00:09:56=39,732 
107 GERSteffen WesemannUSATeam Telekom04:18:14  +  00:09:56=39,732 
108 RUSAlexandre BotcharovFRAAg2r Prevoyance04:18:14  +  00:09:56=39,732 
109 NEDServais KnavenBELDomo-Farm Frites04:18:14  +  00:09:56=39,732 
110 FRAWalter BénéteauFRABonjour04:18:14  +  00:09:56=39,732 
111 ESPJosé Angel VidalESPKelme-Costa Blanca04:18:14  +  00:09:56=39,732 
112 BELLudo DierckxsensITALampre-Daikin04:18:14  +  00:09:56=39,732 
113 FRAAnthony MorinFRACredit Agricole04:18:14  +  00:09:56=39,732 
114 RUSGuennadi MikhailovBELLotto-Adecco04:18:14  +  00:09:56=39,732 
115 ESPIñigo CuestaFRACofidis Credit Par Telephone04:18:14  +  00:09:56=39,732 
116 COLVictor Hugo PenaUSAUS Postal Service04:18:14  +  00:09:56=39,732 
117 LUXBenoit JoachimUSAUS Postal Service04:18:14  +  00:09:56=39,732 
118 SUIRubens BertogliatiITALampre-Daikin04:18:14  +  00:09:56=39,732 
119 FRAEddy SeigneurFRAJean Delatour04:18:14  +  00:09:56=39,732 
120 FRACyril DesselFRAJean Delatour04:18:14  +  00:09:56=39,732 
121 FRAFrédéric GuesdonFRAfdjeux.com04:18:14  +  00:09:56=39,732 
122 FRAFranck RenierFRABonjour04:18:14  +  00:09:56=39,732 
123 FRAFranck BouyerFRABonjour04:18:14  +  00:09:56=39,732 
124 FRAAnthony LangellaFRACredit Agricole04:18:14  +  00:09:56=39,732 
125 AUTPeter LuttenbergerITATacconi Sport04:18:14  +  00:09:56=39,732 
126 USAKevin LivingstonUSATeam Telekom04:18:14  +  00:09:56=39,732 
127 URSRaivis BelohvosciksITALampre-Daikin04:18:14  +  00:09:56=39,732 
128 ESPConstantino ZaballaESPKelme-Costa Blanca04:18:14  +  00:09:56=39,732 
129 FRAChristophe EdaleineFRAJean Delatour04:18:14  +  00:09:56=39,732 
130 GERUdo BöltsUSATeam Telekom04:18:14  +  00:09:56=39,732 
131 FRAJérôme PineauFRABonjour04:18:14  +  00:09:56=39,732 
132 VENUnai EtxebarriaESPEuskaltel - Euskadi04:18:14  +  00:09:56=39,732 
133 ITAGiuseppe GueriniUSATeam Telekom04:18:14  +  00:09:56=39,732 
134 ITADavide CasarottoITAAlessio04:18:14  +  00:09:56=39,732 
135 ESPJosé GarciaESPibanesto.com04:18:14  +  00:09:56=39,732 
136 FRAChristophe OriolFRAAg2r Prevoyance04:18:14  +  00:09:56=39,732 
137 FRASandy CasarFRAfdjeux.com04:18:14  +  00:09:56=39,732 
138 FRADamien NazonFRABonjour04:18:14  +  00:09:56=39,732 
139 AUSBradley McGeeFRAfdjeux.com04:18:38  +  00:10:20=39,670 
140 ESPGorka ArrizabalagaESPEuskaltel - Euskadi04:18:38  +  00:10:20=39,670 
141 USAGeorge HincapieUSAUS Postal Service04:18:38  +  00:10:20=39,670 
142 SLOMartin HvastijaITAAlessio04:18:38  +  00:10:20=39,670 
143 NEDKarsten KroonNLDRabobank04:18:38  +  00:10:20=39,670 
144 URSArvis PiziksDNKTeam CSC-Tiscali04:19:25  +  00:11:07=39,550 
145 ITAMarzio BruseghinESPibanesto.com04:20:25  +  00:12:07=39,398 
146 RUSSerguei IvanovITAFassa Bortolo04:20:25  +  00:12:07=39,398 
147 FRAAndy FlickingerFRAAg2r Prevoyance04:20:25  +  00:12:07=39,398 
148 RSARobert HunterITAMapei-Quick Step04:21:01  +  00:12:43=39,308 
149 GERJens VoigtFRACredit Agricole04:21:01  +  00:12:43=39,308 
150 ESPIgor Flores GalarzaESPEuskaltel - Euskadi04:21:01  +  00:12:43=39,308 
151 UKRSerhiy HoncharITAFassa Bortolo04:21:01  +  00:12:43=39,308 
152 FRAStéphane BergesFRAAg2r Prevoyance04:21:01  +  00:12:43=39,308 
153 ITACristian MoreniITAAlessio04:21:01  +  00:12:43=39,308 
154 ESPSantiago BlancoESPibanesto.com04:21:01  +  00:12:43=39,308 
155 RUSDenis MenchovESPibanesto.com04:21:01  +  00:12:43=39,308 
156 FRALudovic TurpinFRAAg2r Prevoyance04:21:01  +  00:12:43=39,308 
157 ITAMassimo DonatiITATacconi Sport04:21:01  +  00:12:43=39,308 
158 BELDave BruylandtsBELDomo-Farm Frites04:21:01  +  00:12:43=39,308 
159 NEDErik DekkerNLDRabobank04:21:01  +  00:12:43=39,308 
160 NEDAddy EngelsNLDRabobank04:21:01  +  00:12:43=39,308 
161 ESPIban MayoESPEuskaltel - Euskadi04:21:01  +  00:12:43=39,308 
162 ESPRoberto LaisekaESPEuskaltel - Euskadi04:21:01  +  00:12:43=39,308 
163 FRAJérôme BernardFRAJean Delatour04:21:01  +  00:12:43=39,308 
164 COLFred RodriguezBELDomo-Farm Frites04:21:01  +  00:12:43=39,308 

Withdrawls: 2
 
Rider
Team
Reason
34  ESPJosé GomezESPKelme-Costa BlancaDid not finish
174  ITAPaolo BossoniITATacconi SportDid not finish

Todays birthdays.

1887  Donald Kirkham
1889  Théodore Abada
1911  Guillaume Chavard
1912  Jean Fontenay
1913  Fabien Galateau
1930  Roger Hassenforder
1930  Richard Van Genechten
1936  Philippe Gaudrillet
1937  Joseph Novales
1954  Hans-Peter Jakst
1960  Manuel Ramos
1973  David Etxebarria
1974  Rik Verbrugghe
1976  Jörg Jaksche




Visits: